createdAt,value
2017-08-06T00:02:22.890Z,14.97
2017-08-06T00:04:50.752Z,16.93
2017-08-06T00:07:18.634Z,17.80
2017-08-06T00:09:46.466Z,19.63
2017-08-06T00:12:14.144Z,14.57
2017-08-06T00:14:42.121Z,19.93
2017-08-06T00:17:10.095Z,15.77
2017-08-06T00:19:37.962Z,26.57
2017-08-06T00:22:05.673Z,14.23
2017-08-06T00:24:33.545Z,16.70
2017-08-06T00:27:01.561Z,22.47
2017-08-06T00:29:29.215Z,15.50
2017-08-06T00:31:56.804Z,15.33
2017-08-06T00:34:24.735Z,23.03
2017-08-06T00:36:52.414Z,18.20
2017-08-06T00:39:20.144Z,15.73
2017-08-06T00:41:47.866Z,19.23
2017-08-06T00:44:15.806Z,19.40
2017-08-06T00:46:43.471Z,27.83
2017-08-06T00:49:11.338Z,17.10
2017-08-06T00:51:39.059Z,17.23
2017-08-06T00:54:07.024Z,17.47
2017-08-06T00:56:34.736Z,18.00
2017-08-06T00:59:02.461Z,16.93
2017-08-06T01:01:30.268Z,30.50
2017-08-06T01:03:58.114Z,16.93
2017-08-06T01:06:25.831Z,17.53
2017-08-06T01:08:53.456Z,18.27
2017-08-06T01:11:21.318Z,16.80
2017-08-06T01:13:48.987Z,19.27
2017-08-06T01:16:16.732Z,19.40
2017-08-06T01:18:44.720Z,17.93
2017-08-06T01:21:12.437Z,18.80
2017-08-06T01:23:40.405Z,15.90
2017-08-06T01:26:08.116Z,32.17
2017-08-06T01:28:35.772Z,18.87
2017-08-06T01:31:03.508Z,16.60
2017-08-06T01:33:31.194Z,20.40
2017-08-06T01:35:58.964Z,26.53
2017-08-06T01:38:26.836Z,22.93
2017-08-06T01:40:54.873Z,17.40
2017-08-06T01:43:22.774Z,16.63
2017-08-06T01:45:50.710Z,16.50
2017-08-06T01:48:18.674Z,17.13
2017-08-06T01:50:46.579Z,19.73
2017-08-06T01:53:14.311Z,17.87
2017-08-06T01:55:42.300Z,26.90
2017-08-06T01:58:09.976Z,20.20
2017-08-06T02:00:38.051Z,20.70
2017-08-06T02:03:06.754Z,25.40
2017-08-06T02:05:34.446Z,18.40
2017-08-06T02:08:02.409Z,16.77
2017-08-06T02:10:30.175Z,16.97
2017-08-06T02:12:58.096Z,16.53
2017-08-06T02:15:25.861Z,17.17
2017-08-06T02:17:53.880Z,20.63
2017-08-06T02:20:21.803Z,19.87
2017-08-06T02:22:49.515Z,19.03
2017-08-06T02:25:17.506Z,21.67
2017-08-06T02:27:45.401Z,18.23
2017-08-06T02:30:13.064Z,21.77
2017-08-06T02:32:41.107Z,29.77
2017-08-06T02:35:09.003Z,27.60
2017-08-06T02:37:36.841Z,25.40
2017-08-06T02:40:04.585Z,38.93
2017-08-06T02:42:32.575Z,41.20
2017-08-06T02:45:00.317Z,75.33
2017-08-06T02:47:28.335Z,57.43
2017-08-06T02:49:56.180Z,57.87
2017-08-06T02:52:24.193Z,63.40
2017-08-06T02:54:51.983Z,82.00
2017-08-06T02:57:19.949Z,53.10
2017-08-06T02:59:47.774Z,69.40
2017-08-06T03:02:15.609Z,26.73
2017-08-06T03:04:43.578Z,35.93
2017-08-06T03:07:11.323Z,43.80
2017-08-06T03:09:39.139Z,24.00
2017-08-06T03:12:07.005Z,20.33
2017-08-06T03:14:34.846Z,19.03
2017-08-06T03:17:02.504Z,20.93
2017-08-06T03:19:30.098Z,24.83
2017-08-06T03:21:57.854Z,18.60
2017-08-06T03:24:25.778Z,19.10
2017-08-06T03:26:53.382Z,22.80
2017-08-06T03:29:21.225Z,15.53
2017-08-06T03:31:48.900Z,18.23
2017-08-06T03:34:16.801Z,20.57
2017-08-06T03:36:44.652Z,27.43
2017-08-06T03:39:12.670Z,17.17
2017-08-06T03:41:40.560Z,21.53
2017-08-06T03:44:08.287Z,18.40
2017-08-06T03:46:36.165Z,18.90
2017-08-06T03:49:04.140Z,24.33
2017-08-06T03:51:31.962Z,20.80
2017-08-06T03:54:00.120Z,18.50
2017-08-06T03:56:27.789Z,18.00
2017-08-06T03:58:55.656Z,20.43
2017-08-06T04:01:23.673Z,15.97
2017-08-06T04:03:51.597Z,14.13
2017-08-06T04:06:19.667Z,13.77
2017-08-06T04:08:47.698Z,13.23
2017-08-06T04:11:15.607Z,14.60
2017-08-06T04:13:43.457Z,13.67
2017-08-06T04:16:11.341Z,14.10
2017-08-06T04:18:39.091Z,14.10
2017-08-06T04:21:07.034Z,24.03
2017-08-06T04:23:34.729Z,19.00
2017-08-06T04:26:02.393Z,21.67
2017-08-06T04:28:30.111Z,12.37
2017-08-06T04:30:58.131Z,11.37
2017-08-06T04:33:25.793Z,12.93
2017-08-06T04:35:53.454Z,18.00
2017-08-06T04:38:21.459Z,23.97
2017-08-06T04:40:49.248Z,12.90
2017-08-06T04:43:17.261Z,13.13
2017-08-06T04:45:45.335Z,25.23
2017-08-06T04:48:14.072Z,15.13
2017-08-06T04:50:41.936Z,14.60
2017-08-06T04:53:09.957Z,10.20
2017-08-06T04:55:37.824Z,11.30
2017-08-06T04:58:05.538Z,12.60
2017-08-06T05:00:33.559Z,10.77
2017-08-06T05:03:01.220Z,15.33
2017-08-06T05:05:29.067Z,15.27
2017-08-06T05:07:56.813Z,16.30
2017-08-06T05:10:24.779Z,13.97
2017-08-06T05:12:52.593Z,14.73
2017-08-06T05:15:20.511Z,14.10
2017-08-06T05:17:48.219Z,10.43
2017-08-06T05:20:15.969Z,9.17
2017-08-06T05:22:43.621Z,32.73
2017-08-06T05:25:11.391Z,9.93
2017-08-06T05:27:39.070Z,14.73
2017-08-06T05:30:07.116Z,11.93
2017-08-06T05:32:35.009Z,16.73
2017-08-06T05:35:02.671Z,20.60
2017-08-06T05:37:30.744Z,10.40
2017-08-06T05:39:58.584Z,9.37
2017-08-06T05:42:26.471Z,10.53
2017-08-06T05:44:54.544Z,11.00
2017-08-06T05:47:22.414Z,10.97
2017-08-06T05:49:50.253Z,9.30
2017-08-06T05:52:18.139Z,9.73
2017-08-06T05:54:45.807Z,10.00
2017-08-06T05:57:13.631Z,24.20
2017-08-06T05:59:41.448Z,18.03
2017-08-06T06:02:09.269Z,11.50
2017-08-06T06:04:37.073Z,7.70
2017-08-06T06:07:04.926Z,16.30
2017-08-06T06:09:32.810Z,11.20
2017-08-06T06:12:00.655Z,8.40
2017-08-06T06:14:28.376Z,10.60
2017-08-06T06:16:55.953Z,8.03
2017-08-06T06:19:23.869Z,8.53
2017-08-06T06:21:51.732Z,9.13
2017-08-06T06:24:19.447Z,7.80
2017-08-06T06:26:47.466Z,10.13
2017-08-06T06:29:15.511Z,6.82
2017-08-06T06:31:43.124Z,18.52
2017-08-06T06:34:11.067Z,8.88
2017-08-06T06:36:39.139Z,7.70
2017-08-06T06:39:06.792Z,8.82
2017-08-06T06:41:34.638Z,7.70
2017-08-06T06:44:02.325Z,7.05
2017-08-06T06:46:30.055Z,7.45
2017-08-06T06:48:58.066Z,7.40
2017-08-06T06:51:26.136Z,6.90
2017-08-06T06:53:53.857Z,6.72
2017-08-06T06:56:21.871Z,7.50
2017-08-06T06:58:50.179Z,8.15
2017-08-06T07:01:18.032Z,8.05
2017-08-06T07:03:45.873Z,7.03
2017-08-06T07:06:13.952Z,11.75
2017-08-06T07:08:41.610Z,13.10
2017-08-06T07:11:09.582Z,15.98
2017-08-06T07:13:37.551Z,9.43
2017-08-06T07:16:05.264Z,6.95
2017-08-06T07:18:33.232Z,7.30
2017-08-06T07:21:00.999Z,6.80
2017-08-06T07:23:28.967Z,6.97
2017-08-06T07:25:56.886Z,8.02
2017-08-06T07:28:27.969Z,7.37
2017-08-06T07:30:55.564Z,7.05
2017-08-06T07:33:23.934Z,11.65
2017-08-06T07:35:51.673Z,7.03
2017-08-06T07:38:19.281Z,13.68
2017-08-06T07:40:46.886Z,10.18
2017-08-06T07:43:14.563Z,7.22
2017-08-06T07:45:42.196Z,7.68
2017-08-06T07:48:09.835Z,12.02
2017-08-06T07:50:37.510Z,6.53
2017-08-06T07:53:05.137Z,6.12
2017-08-06T07:55:32.764Z,14.18
2017-08-06T07:58:00.428Z,6.50
2017-08-06T08:00:28.101Z,6.28
2017-08-06T08:02:55.740Z,11.27
2017-08-06T08:05:23.424Z,10.38
2017-08-06T08:07:51.038Z,10.95
2017-08-06T08:10:18.667Z,7.30
2017-08-06T08:12:46.341Z,8.65
2017-08-06T08:15:13.955Z,6.43
2017-08-06T08:17:41.613Z,8.55
2017-08-06T08:20:09.297Z,5.78
2017-08-06T08:22:36.914Z,7.30
2017-08-06T08:25:04.545Z,14.05
2017-08-06T08:27:32.238Z,7.00
2017-08-06T08:29:59.855Z,19.67
2017-08-06T08:32:27.479Z,11.30
2017-08-06T08:34:55.150Z,8.57
2017-08-06T08:37:22.774Z,19.42
2017-08-06T08:39:50.389Z,7.80
2017-08-06T08:42:18.056Z,12.48
2017-08-06T08:44:45.681Z,15.35
2017-08-06T08:47:13.320Z,5.50
2017-08-06T08:49:41.006Z,8.20
2017-08-06T08:52:08.633Z,6.18
2017-08-06T08:54:36.239Z,10.05
2017-08-06T08:57:03.938Z,9.15
2017-08-06T08:59:31.550Z,16.35
2017-08-06T09:01:59.238Z,6.97
2017-08-06T09:04:26.934Z,9.82
2017-08-06T09:06:54.566Z,6.22
2017-08-06T09:09:22.177Z,7.32
2017-08-06T09:11:49.856Z,6.32
2017-08-06T09:14:17.492Z,8.20
2017-08-06T09:16:45.081Z,9.02
2017-08-06T09:19:12.737Z,10.90
2017-08-06T09:21:40.367Z,6.28
2017-08-06T09:24:07.986Z,8.15
2017-08-06T09:26:35.671Z,7.37
2017-08-06T09:29:04.325Z,15.40
2017-08-06T09:31:31.956Z,11.02
2017-08-06T09:33:59.658Z,10.27
2017-08-06T09:36:27.279Z,30.75
2017-08-06T09:38:54.923Z,16.67
2017-08-06T09:41:22.630Z,13.18
2017-08-06T09:43:50.268Z,6.65
2017-08-06T09:46:17.892Z,8.00
2017-08-06T09:48:45.585Z,9.43
2017-08-06T09:51:13.204Z,10.13
2017-08-06T09:53:40.841Z,27.80
2017-08-06T09:56:08.519Z,11.70
2017-08-06T09:58:36.121Z,10.07
2017-08-06T10:01:03.736Z,9.52
2017-08-06T10:03:31.535Z,7.75
2017-08-06T10:05:59.149Z,17.73
2017-08-06T10:08:26.759Z,12.73
2017-08-06T10:10:54.474Z,18.87
2017-08-06T10:13:22.081Z,7.20
2017-08-06T10:15:49.676Z,8.63
2017-08-06T10:18:17.340Z,20.45
2017-08-06T10:20:44.975Z,12.05
2017-08-06T10:23:12.587Z,6.85
2017-08-06T10:25:40.283Z,7.47
2017-08-06T10:28:07.919Z,7.85
2017-08-06T10:30:35.569Z,13.70
2017-08-06T10:33:03.254Z,8.98
2017-08-06T10:35:30.863Z,12.55
2017-08-06T10:37:58.470Z,8.00
2017-08-06T10:40:26.148Z,14.02
2017-08-06T10:42:53.777Z,18.12
2017-08-06T10:45:21.391Z,6.90
2017-08-06T10:47:49.078Z,9.05
2017-08-06T10:50:16.700Z,10.73
2017-08-06T10:52:44.345Z,14.25
2017-08-06T10:55:12.027Z,10.90
2017-08-06T10:57:39.643Z,7.87
2017-08-06T11:00:07.310Z,9.13
2017-08-06T11:02:34.954Z,9.82
2017-08-06T11:05:02.559Z,11.60
2017-08-06T11:07:30.205Z,11.00
2017-08-06T11:09:57.938Z,8.10
2017-08-06T11:12:25.558Z,6.15
2017-08-06T11:14:53.159Z,7.35
2017-08-06T11:17:20.824Z,6.30
2017-08-06T11:19:48.418Z,9.30
2017-08-06T11:22:16.030Z,7.07
2017-08-06T11:24:43.706Z,6.65
2017-08-06T11:27:11.322Z,6.35
2017-08-06T11:29:38.929Z,7.82
2017-08-06T11:32:06.598Z,10.10
2017-08-06T11:34:34.257Z,10.23
2017-08-06T11:37:01.891Z,6.28
2017-08-06T11:39:29.571Z,6.20
2017-08-06T11:41:57.173Z,6.00
2017-08-06T11:44:24.757Z,5.75
2017-08-06T11:46:52.444Z,12.68
2017-08-06T11:49:20.055Z,8.77
2017-08-06T11:51:47.677Z,7.00
2017-08-06T11:54:15.328Z,7.12
2017-08-06T11:56:42.935Z,9.02
2017-08-06T11:59:10.551Z,13.05
2017-08-06T12:01:38.218Z,10.55
2017-08-06T12:04:05.842Z,6.25
2017-08-06T12:06:33.429Z,6.30
2017-08-06T12:09:01.066Z,7.45
2017-08-06T12:11:28.652Z,16.83
2017-08-06T12:13:56.375Z,7.20
2017-08-06T12:16:24.063Z,15.70
2017-08-06T12:18:51.703Z,12.95
2017-08-06T12:21:19.359Z,6.20
2017-08-06T12:23:47.048Z,8.10
2017-08-06T12:26:14.637Z,6.03
2017-08-06T12:28:42.249Z,10.35
2017-08-06T12:31:09.954Z,9.30
2017-08-06T12:33:37.653Z,18.20
2017-08-06T12:36:05.354Z,6.87
2017-08-06T12:38:32.976Z,7.00
2017-08-06T12:41:00.572Z,8.93
2017-08-06T12:43:28.224Z,7.30
2017-08-06T12:45:56.208Z,6.28
2017-08-06T12:48:23.813Z,14.87
2017-08-06T12:50:51.472Z,6.47
2017-08-06T12:53:19.238Z,8.98
2017-08-06T12:55:46.838Z,5.93
2017-08-06T12:58:14.426Z,6.75
2017-08-06T13:00:42.071Z,9.90
2017-08-06T13:03:09.699Z,15.77
2017-08-06T13:05:37.311Z,16.08
2017-08-06T13:08:04.952Z,10.63
2017-08-06T13:10:32.556Z,17.02
2017-08-06T13:13:00.154Z,13.40
2017-08-06T13:15:27.818Z,8.38
2017-08-06T13:17:55.421Z,9.52
2017-08-06T13:20:23.086Z,17.08
2017-08-06T13:22:50.744Z,9.77
2017-08-06T13:25:18.367Z,17.33
2017-08-06T13:27:45.983Z,9.13
2017-08-06T13:30:13.682Z,11.20
2017-08-06T13:32:41.339Z,11.02
2017-08-06T13:35:08.944Z,9.82
2017-08-06T13:37:36.789Z,8.07
2017-08-06T13:40:04.402Z,16.27
2017-08-06T13:42:32.009Z,10.35
2017-08-06T13:44:59.681Z,11.55
2017-08-06T13:47:27.272Z,8.88
2017-08-06T13:49:54.941Z,9.95
2017-08-06T13:52:22.577Z,11.70
2017-08-06T13:54:50.161Z,15.52
2017-08-06T13:57:18.002Z,17.55
2017-08-06T13:59:45.678Z,14.02
2017-08-06T14:02:13.292Z,20.00
2017-08-06T14:04:40.887Z,19.33
2017-08-06T14:07:08.547Z,30.03
2017-08-06T14:09:36.161Z,19.03
2017-08-06T14:12:03.775Z,11.67
2017-08-06T14:14:31.430Z,20.87
2017-08-06T14:16:59.045Z,28.57
2017-08-06T14:19:26.697Z,19.00
2017-08-06T14:21:54.394Z,16.63
2017-08-06T14:24:22.010Z,15.03
2017-08-06T14:26:49.618Z,25.70
2017-08-06T14:29:17.307Z,21.33
2017-08-06T14:31:44.934Z,9.23
2017-08-06T14:34:12.560Z,9.80
2017-08-06T14:36:40.232Z,12.03
2017-08-06T14:39:07.838Z,14.53
2017-08-06T14:41:35.447Z,9.00
2017-08-06T14:44:03.115Z,15.67
2017-08-06T14:46:30.720Z,19.27
2017-08-06T14:48:58.329Z,18.87
2017-08-06T14:51:26.010Z,21.83
2017-08-06T14:53:54.536Z,27.87
2017-08-06T14:56:22.156Z,17.53
2017-08-06T14:58:50.117Z,21.80
2017-08-06T15:01:17.862Z,11.80
2017-08-06T15:03:45.627Z,28.60
2017-08-06T15:06:13.294Z,33.53
2017-08-06T15:08:40.910Z,27.50
2017-08-06T15:11:08.524Z,13.87
2017-08-06T15:13:36.203Z,21.57
2017-08-06T15:16:03.835Z,10.23
2017-08-06T15:18:31.446Z,16.43
2017-08-06T15:20:59.105Z,13.63
2017-08-06T15:23:26.696Z,11.60
2017-08-06T15:25:54.295Z,12.53
2017-08-06T15:28:21.967Z,11.67
2017-08-06T15:30:49.588Z,9.83
2017-08-06T15:33:17.193Z,10.33
2017-08-06T15:35:44.872Z,9.60
2017-08-06T15:38:12.582Z,17.60
2017-08-06T15:40:40.383Z,16.97
2017-08-06T15:43:08.381Z,13.60
2017-08-06T15:45:36.092Z,12.70
2017-08-06T15:48:03.931Z,16.60
2017-08-06T15:50:31.620Z,13.03
2017-08-06T15:52:59.348Z,16.13
2017-08-06T15:55:27.346Z,20.80
2017-08-06T15:57:55.006Z,13.57
2017-08-06T16:00:22.729Z,15.80
2017-08-06T16:02:50.325Z,16.83
2017-08-06T16:05:18.030Z,10.23
2017-08-06T16:07:45.851Z,13.80
2017-08-06T16:10:13.735Z,13.13
2017-08-06T16:12:41.737Z,10.80
2017-08-06T16:15:09.457Z,10.63
2017-08-06T16:17:37.134Z,10.83
2017-08-06T16:20:05.069Z,9.73
2017-08-06T16:22:32.781Z,9.90
2017-08-06T16:25:00.526Z,10.30
2017-08-06T16:27:28.404Z,13.73
2017-08-06T16:29:56.058Z,12.87
2017-08-06T16:32:23.775Z,19.17
2017-08-06T16:34:51.766Z,16.37
2017-08-06T16:37:19.480Z,29.43
2017-08-06T16:39:47.124Z,33.23
2017-08-06T16:42:15.046Z,76.37
2017-08-06T16:44:42.962Z,35.50
2017-08-06T16:47:10.921Z,29.53
2017-08-06T16:49:38.788Z,26.00
2017-08-06T16:52:06.452Z,32.60
2017-08-06T16:54:34.182Z,39.67
2017-08-06T16:57:02.018Z,17.00
2017-08-06T16:59:30.475Z,28.80
2017-08-06T17:01:58.126Z,71.83
2017-08-06T17:04:26.196Z,28.97
2017-08-06T17:06:54.039Z,28.83
2017-08-06T17:09:21.929Z,19.53
2017-08-06T17:11:49.795Z,26.03
2017-08-06T17:14:17.645Z,15.30
2017-08-06T17:16:45.518Z,23.40
2017-08-06T17:19:13.506Z,25.40
2017-08-06T17:21:41.323Z,26.17
2017-08-06T17:24:09.309Z,25.33
2017-08-06T17:26:37.204Z,25.47
2017-08-06T17:29:05.049Z,28.80
2017-08-06T17:31:32.936Z,24.63
2017-08-06T17:34:01.001Z,25.53
2017-08-06T17:36:28.670Z,28.93
2017-08-06T17:38:56.333Z,32.67
2017-08-06T17:41:24.238Z,47.87
2017-08-06T17:43:52.229Z,32.97
2017-08-06T17:46:19.937Z,23.87
2017-08-06T17:48:48.012Z,34.20
2017-08-06T17:51:15.768Z,31.40
2017-08-06T17:53:43.534Z,27.83
2017-08-06T17:56:11.465Z,33.40
2017-08-06T17:58:39.268Z,33.60
2017-08-06T18:01:06.934Z,30.13
2017-08-06T18:03:34.747Z,34.50
2017-08-06T18:06:02.460Z,20.97
2017-08-06T18:08:30.124Z,20.43
2017-08-06T18:10:59.020Z,29.80
2017-08-06T18:13:26.672Z,21.50
2017-08-06T18:15:54.313Z,35.40
2017-08-06T18:18:22.170Z,25.90
2017-08-06T18:20:50.038Z,32.83
2017-08-06T18:23:17.936Z,41.53
2017-08-06T18:25:45.794Z,18.67
2017-08-06T18:28:13.468Z,32.67
2017-08-06T18:30:41.303Z,30.70
2017-08-06T18:33:08.998Z,28.93
2017-08-06T18:35:36.660Z,27.23
2017-08-06T18:38:04.316Z,21.60
2017-08-06T18:40:32.396Z,30.63
2017-08-06T18:43:00.119Z,33.70
2017-08-06T18:45:27.858Z,27.73
2017-08-06T18:47:55.702Z,26.67
2017-08-06T18:50:23.480Z,36.80
2017-08-06T18:52:51.419Z,27.37
2017-08-06T18:55:19.186Z,19.13
2017-08-06T18:57:46.922Z,20.27
2017-08-06T19:00:14.772Z,23.73
2017-08-06T19:02:42.751Z,23.20
2017-08-06T19:05:10.578Z,34.30
2017-08-06T19:07:38.389Z,29.00
2017-08-06T19:10:06.389Z,27.03
2017-08-06T19:12:34.270Z,17.77
2017-08-06T19:15:02.116Z,20.83
2017-08-06T19:17:30.186Z,18.77
2017-08-06T19:19:58.025Z,29.90
2017-08-06T19:22:25.812Z,19.60
2017-08-06T19:24:53.587Z,26.33
2017-08-06T19:27:21.343Z,25.80
2017-08-06T19:29:49.557Z,21.27
2017-08-06T19:32:18.067Z,34.30
2017-08-06T19:34:46.096Z,30.50
2017-08-06T19:37:14.161Z,26.60
2017-08-06T19:39:41.819Z,20.40
2017-08-06T19:42:09.477Z,22.37
2017-08-06T19:44:37.085Z,27.83
2017-08-06T19:47:04.962Z,23.40
2017-08-06T19:49:32.873Z,22.47
2017-08-06T19:52:00.517Z,24.10
2017-08-06T19:54:28.362Z,28.53
2017-08-06T19:56:56.058Z,30.77
2017-08-06T19:59:23.717Z,24.00
2017-08-06T20:01:52.407Z,36.97
2017-08-06T20:04:20.265Z,41.13
2017-08-06T20:06:47.946Z,24.57
2017-08-06T20:09:15.805Z,29.33
2017-08-06T20:11:43.632Z,29.37
2017-08-06T20:14:11.539Z,29.60
2017-08-06T20:16:39.473Z,26.67
2017-08-06T20:19:07.465Z,44.87
2017-08-06T20:21:36.368Z,23.43
2017-08-06T20:24:05.990Z,23.00
2017-08-06T20:26:34.344Z,24.93
2017-08-06T20:29:02.427Z,30.87
2017-08-06T20:31:31.742Z,24.33
2017-08-06T20:33:59.699Z,30.33
2017-08-06T20:36:27.501Z,33.20
2017-08-06T20:38:55.339Z,34.63
2017-08-06T20:41:22.984Z,31.87
2017-08-06T20:43:50.659Z,30.30
2017-08-06T20:46:18.377Z,26.63
2017-08-06T20:48:46.187Z,42.33
2017-08-06T20:51:13.841Z,26.17
2017-08-06T20:53:41.675Z,26.27
2017-08-06T20:56:09.585Z,26.10
2017-08-06T20:58:37.239Z,28.57
2017-08-06T21:01:05.307Z,31.10
2017-08-06T21:03:33.046Z,27.00
2017-08-06T21:06:00.646Z,30.23
2017-08-06T21:08:28.504Z,25.40
2017-08-06T21:10:56.093Z,30.17
2017-08-06T21:13:23.909Z,26.23
2017-08-06T21:15:51.697Z,26.60
2017-08-06T21:18:19.434Z,28.30
2017-08-06T21:20:47.221Z,30.73
2017-08-06T21:23:15.100Z,27.70
2017-08-06T21:25:42.859Z,31.53
2017-08-06T21:28:10.795Z,28.83
2017-08-06T21:30:38.539Z,44.50
2017-08-06T21:33:06.505Z,26.50
2017-08-06T21:35:34.325Z,28.17
2017-08-06T21:38:02.087Z,28.87
2017-08-06T21:40:29.930Z,30.13
2017-08-06T21:42:57.599Z,34.87
2017-08-06T21:45:25.347Z,31.73
2017-08-06T21:47:53.149Z,25.73
2017-08-06T21:50:20.816Z,31.47
2017-08-06T21:52:48.457Z,29.37
2017-08-06T21:55:16.132Z,29.20
2017-08-06T21:57:43.796Z,40.30
2017-08-06T22:00:13.710Z,32.00
2017-08-06T22:02:41.795Z,30.47
2017-08-06T22:05:09.856Z,32.43
2017-08-06T22:07:37.773Z,31.53
2017-08-06T22:10:05.587Z,27.30
2017-08-06T22:12:33.878Z,26.20
2017-08-06T22:15:01.718Z,28.23
2017-08-06T22:17:29.389Z,30.33
2017-08-06T22:19:57.082Z,30.40
2017-08-06T22:22:24.751Z,29.40
2017-08-06T22:24:52.789Z,32.63
2017-08-06T22:27:20.455Z,35.60
2017-08-06T22:29:48.476Z,28.50
2017-08-06T22:32:16.068Z,29.47
2017-08-06T22:34:43.841Z,33.93
2017-08-06T22:37:11.919Z,30.17
2017-08-06T22:39:39.766Z,26.93
2017-08-06T22:42:07.651Z,33.33
2017-08-06T22:44:35.299Z,35.23
2017-08-06T22:47:03.139Z,28.63
2017-08-06T22:49:31.012Z,29.00
2017-08-06T22:51:58.740Z,31.13
2017-08-06T22:54:26.673Z,41.87
2017-08-06T22:56:54.260Z,31.50
2017-08-06T22:59:22.087Z,30.23
2017-08-06T23:01:49.947Z,32.57
2017-08-06T23:04:17.639Z,32.33
2017-08-06T23:06:45.706Z,31.07
2017-08-06T23:09:13.368Z,31.27
2017-08-06T23:11:40.949Z,30.57
2017-08-06T23:14:08.693Z,35.73
2017-08-06T23:16:36.277Z,30.23
2017-08-06T23:19:04.216Z,39.43
2017-08-06T23:21:32.083Z,29.87
2017-08-06T23:23:59.749Z,38.40
2017-08-06T23:26:27.397Z,31.10
2017-08-06T23:28:55.484Z,31.23
2017-08-06T23:31:23.328Z,31.70
2017-08-06T23:33:51.006Z,34.23
2017-08-06T23:36:18.938Z,33.50
2017-08-06T23:38:46.951Z,35.30
2017-08-06T23:41:14.668Z,32.90
2017-08-06T23:43:42.534Z,30.00
2017-08-06T23:46:10.410Z,33.87
2017-08-06T23:48:38.214Z,31.83
2017-08-06T23:51:06.243Z,32.37
2017-08-06T23:53:34.151Z,31.37
2017-08-06T23:56:01.813Z,31.30
2017-08-06T23:58:29.670Z,37.73
